createdAt,value
2022-11-18T00:03:48.050Z,64.73
2022-11-18T00:08:52.479Z,64.58
2022-11-18T00:14:13.749Z,64.56
2022-11-18T00:19:17.126Z,65.06
2022-11-18T00:24:20.886Z,65.07
2022-11-18T00:29:26.986Z,64.93
2022-11-18T00:34:29.999Z,65.18
2022-11-18T00:39:32.979Z,65.17
2022-11-18T00:44:37.007Z,65.03
2022-11-18T00:49:39.977Z,65.39
2022-11-18T00:54:42.912Z,65.24
2022-11-18T00:59:46.084Z,65.26
2022-11-18T01:04:49.144Z,65.36
2022-11-18T01:09:52.128Z,65.77
2022-11-18T01:14:55.052Z,65.57
2022-11-18T01:19:58.225Z,65.29
2022-11-18T01:25:01.238Z,64.97
2022-11-18T01:30:04.620Z,64.52
2022-11-18T01:35:07.939Z,64.44
2022-11-18T01:40:11.338Z,64.55
2022-11-18T01:45:29.012Z,64.66
2022-11-18T01:50:34.089Z,64.48
2022-11-18T01:55:41.849Z,64.84
2022-11-18T02:00:44.810Z,64.81
2022-11-18T02:05:49.589Z,64.87
2022-11-18T02:10:52.629Z,64.34
2022-11-18T02:16:16.595Z,64.65
2022-11-18T02:21:53.009Z,64.64
2022-11-18T02:27:02.087Z,64.74
2022-11-18T02:32:13.802Z,64.84
2022-11-18T02:37:33.371Z,64.72
2022-11-18T02:42:38.073Z,64.61
2022-11-18T02:47:45.105Z,65.01
2022-11-18T02:52:52.897Z,65.19
2022-11-18T02:57:57.733Z,65.31
2022-11-18T03:03:00.855Z,65.71
2022-11-18T03:08:13.694Z,66.01
2022-11-18T03:13:34.893Z,65.78
2022-11-18T03:18:57.689Z,66.17
2022-11-18T03:24:13.384Z,66.19
2022-11-18T03:29:21.730Z,66.53
2022-11-18T03:34:34.811Z,66.60
2022-11-18T03:39:42.829Z,67.06
2022-11-18T03:44:53.507Z,67.07
2022-11-18T03:50:04.386Z,67.09
2022-11-18T03:55:15.049Z,67.07
2022-11-18T04:00:20.370Z,68.19
2022-11-18T04:05:26.740Z,68.09
2022-11-18T04:10:35.477Z,67.79
2022-11-18T04:15:40.783Z,68.27
2022-11-18T04:20:43.914Z,68.17
2022-11-18T04:25:46.984Z,67.60
2022-11-18T04:30:51.150Z,67.68
2022-11-18T04:35:54.080Z,67.87
2022-11-18T04:40:56.983Z,67.92
2022-11-18T04:45:59.904Z,68.23
2022-11-18T04:51:06.418Z,68.92
2022-11-18T04:56:09.730Z,67.83
2022-11-18T05:01:13.483Z,67.81
2022-11-18T05:06:16.465Z,67.97
2022-11-18T05:11:38.098Z,68.02
2022-11-18T05:16:41.291Z,69.14
2022-11-18T05:21:44.244Z,67.71
2022-11-18T05:26:47.401Z,67.68
2022-11-18T05:31:50.912Z,67.67
2022-11-18T05:36:53.942Z,67.49
2022-11-18T05:42:16.497Z,67.48
2022-11-18T05:47:19.460Z,67.61
2022-11-18T05:52:22.589Z,67.97
2022-11-18T05:57:25.502Z,68.12
2022-11-18T06:02:30.819Z,67.96
2022-11-18T06:07:46.808Z,68.39
2022-11-18T06:12:52.938Z,68.15
2022-11-18T06:18:04.067Z,68.30
2022-11-18T06:23:07.086Z,68.53
2022-11-18T06:28:12.295Z,68.44
2022-11-18T06:33:15.288Z,68.53
2022-11-18T06:38:18.297Z,68.35
2022-11-18T06:43:39.229Z,68.13
2022-11-18T06:48:42.396Z,68.16
2022-11-18T06:53:45.562Z,68.31
2022-11-18T06:58:53.913Z,68.07
2022-11-18T07:03:59.787Z,68.10
2022-11-18T07:09:05.951Z,68.38
2022-11-18T07:14:09.700Z,68.43
2022-11-18T07:19:14.023Z,68.44
2022-11-18T07:24:17.136Z,68.70
2022-11-18T07:29:20.467Z,68.77
2022-11-18T07:34:23.492Z,68.82
2022-11-18T07:39:26.456Z,68.53
2022-11-18T07:44:29.545Z,68.17
2022-11-18T07:49:32.527Z,68.01
2022-11-18T07:54:35.541Z,68.18
2022-11-18T07:59:38.459Z,68.20
2022-11-18T08:04:41.460Z,68.12
2022-11-18T08:09:44.468Z,68.18
2022-11-18T08:14:47.502Z,67.93
2022-11-18T08:19:50.446Z,68.28
2022-11-18T08:24:53.439Z,68.11
2022-11-18T08:29:56.441Z,68.13
2022-11-18T08:34:59.457Z,68.25
2022-11-18T08:40:02.810Z,68.12
2022-11-18T08:45:08.605Z,67.80
2022-11-18T08:50:12.708Z,67.75
2022-11-18T08:55:15.898Z,67.74
2022-11-18T09:00:19.452Z,67.63
2022-11-18T09:05:22.403Z,67.24
2022-11-18T09:10:25.422Z,67.34
2022-11-18T09:15:29.841Z,67.68
2022-11-18T09:20:32.821Z,67.02
2022-11-18T09:25:35.766Z,67.11
2022-11-18T09:30:38.771Z,67.00
2022-11-18T09:35:43.249Z,67.17
2022-11-18T09:41:24.642Z,67.17
2022-11-18T09:46:35.408Z,67.12
2022-11-18T09:51:46.936Z,66.93
2022-11-18T09:56:52.230Z,66.96
2022-11-18T10:02:11.713Z,66.63
2022-11-18T10:07:26.555Z,66.26
2022-11-18T10:12:36.426Z,66.20
2022-11-18T10:18:04.039Z,66.26
2022-11-18T10:23:32.677Z,66.11
2022-11-18T10:28:35.814Z,65.85
2022-11-18T10:33:39.589Z,66.12
2022-11-18T10:38:48.466Z,66.27
2022-11-18T10:43:56.496Z,65.97
2022-11-18T10:49:08.587Z,65.98
2022-11-18T10:54:23.514Z,66.05
2022-11-18T10:59:39.915Z,66.29
2022-11-18T11:04:45.054Z,66.54
2022-11-18T11:10:18.236Z,66.22
2022-11-18T11:15:35.564Z,66.03
2022-11-18T11:20:38.978Z,65.91
2022-11-18T11:31:39.067Z,66.08
2022-11-18T11:36:44.587Z,65.32
2022-11-18T11:42:07.903Z,64.95
2022-11-18T11:47:47.440Z,64.85
2022-11-18T11:53:06.550Z,65.38
2022-11-18T11:58:48.564Z,65.52
2022-11-18T12:04:00.706Z,65.85
2022-11-18T12:09:21.234Z,65.66
2022-11-18T12:14:41.042Z,65.68
2022-11-18T12:19:44.036Z,65.93
2022-11-18T12:24:46.973Z,65.67
2022-11-18T12:29:50.299Z,65.48
2022-11-18T12:35:00.948Z,65.42
2022-11-18T12:40:04.330Z,65.75
2022-11-18T12:45:41.378Z,65.05
2022-11-18T12:50:53.164Z,64.91
2022-11-18T12:55:59.510Z,64.87
2022-11-18T13:01:11.257Z,64.40
2022-11-18T13:06:31.489Z,64.60
2022-11-18T13:11:47.782Z,64.49
2022-11-18T13:17:09.925Z,64.62
2022-11-18T13:22:37.064Z,64.61
2022-11-18T13:28:07.396Z,64.14
2022-11-18T13:33:11.908Z,63.80
2022-11-18T13:38:28.130Z,63.85
2022-11-18T13:43:32.456Z,63.73
2022-11-18T13:48:38.059Z,63.50
2022-11-18T13:53:41.302Z,63.46
2022-11-18T13:59:21.717Z,63.37
2022-11-18T14:04:25.836Z,63.21
2022-11-18T14:09:31.180Z,62.87
2022-11-18T14:14:40.283Z,62.92
2022-11-18T14:19:43.956Z,63.06
2022-11-18T14:25:01.699Z,62.66
2022-11-18T14:30:23.546Z,62.74
2022-11-18T14:35:30.448Z,62.61
2022-11-18T14:40:36.299Z,62.69
2022-11-18T14:45:40.637Z,62.92
2022-11-18T14:50:43.634Z,62.09
2022-11-18T14:55:49.825Z,61.60
2022-11-18T15:00:53.372Z,61.66
2022-11-18T15:05:56.453Z,61.42
2022-11-18T15:10:59.558Z,61.19
2022-11-18T15:16:26.888Z,61.71
2022-11-18T15:21:30.586Z,61.42
2022-11-18T15:26:40.049Z,61.46
2022-11-18T15:31:43.053Z,61.13
2022-11-18T15:36:46.605Z,61.16
2022-11-18T15:41:49.770Z,61.14
2022-11-18T15:46:52.726Z,61.25
2022-11-18T15:51:55.865Z,61.06
2022-11-18T15:56:58.907Z,61.04
2022-11-18T16:02:01.894Z,60.81
2022-11-18T16:07:05.609Z,60.18
2022-11-18T16:12:27.436Z,60.22
2022-11-18T16:17:30.374Z,59.78
2022-11-18T16:22:33.464Z,60.27
2022-11-18T16:27:39.187Z,60.08
2022-11-18T16:32:42.107Z,59.63
2022-11-18T16:37:45.103Z,59.61
2022-11-18T16:42:52.004Z,59.69
2022-11-18T16:47:55.200Z,59.49
2022-11-18T16:52:58.489Z,59.32
2022-11-18T16:58:01.455Z,59.35
2022-11-18T17:03:04.697Z,59.29
2022-11-18T17:08:07.611Z,59.44
2022-11-18T17:13:10.597Z,59.23
2022-11-18T17:18:13.664Z,60.38
2022-11-18T17:23:16.824Z,59.23
2022-11-18T17:28:19.810Z,59.04
2022-11-18T17:33:23.387Z,58.79
2022-11-18T17:38:26.606Z,58.78
2022-11-18T17:43:30.093Z,58.92
2022-11-18T17:48:33.073Z,58.75
2022-11-18T17:53:38.108Z,59.00
2022-11-18T17:58:45.053Z,58.84
2022-11-18T18:03:49.007Z,59.82
2022-11-18T18:08:56.452Z,58.67
2022-11-18T18:14:14.923Z,58.53
2022-11-18T18:19:21.188Z,57.99
2022-11-18T18:24:24.902Z,57.70
2022-11-18T18:29:27.873Z,57.73
2022-11-18T18:34:30.851Z,57.81
2022-11-18T18:39:33.906Z,57.54
2022-11-18T18:44:55.531Z,58.07
2022-11-18T18:49:58.499Z,58.03
2022-11-18T18:55:01.483Z,57.14
2022-11-18T19:00:05.308Z,57.40
2022-11-18T19:05:09.570Z,57.26
2022-11-18T19:10:13.686Z,57.57
2022-11-18T19:15:16.952Z,57.45
2022-11-18T19:20:36.719Z,57.57
2022-11-18T19:25:39.758Z,57.62
2022-11-18T19:30:42.747Z,57.52
2022-11-18T19:35:45.676Z,58.00
2022-11-18T19:40:48.760Z,57.77
2022-11-18T19:45:52.326Z,57.69
2022-11-18T19:51:07.135Z,57.95
2022-11-18T19:56:12.023Z,58.04
2022-11-18T20:01:17.867Z,58.19
2022-11-18T20:06:22.329Z,57.80
2022-11-18T20:11:25.477Z,57.88
2022-11-18T20:16:28.600Z,58.02
2022-11-18T20:21:33.119Z,59.12
2022-11-18T20:26:39.156Z,58.02
2022-11-18T20:31:42.142Z,58.02
2022-11-18T20:36:46.572Z,57.33
2022-11-18T20:42:09.866Z,57.29
2022-11-18T20:47:12.826Z,57.78
2022-11-18T20:52:15.777Z,57.35
2022-11-18T20:57:18.756Z,56.33
2022-11-18T21:02:21.681Z,54.99
2022-11-18T21:07:25.234Z,54.16
2022-11-18T21:12:28.379Z,54.32
2022-11-18T21:17:31.614Z,54.82
2022-11-18T21:22:34.537Z,56.21
2022-11-18T21:27:37.445Z,55.54
2022-11-18T21:32:40.365Z,55.64
2022-11-18T21:37:43.317Z,55.90
2022-11-18T21:42:46.250Z,56.28
2022-11-18T21:47:49.156Z,56.71
2022-11-18T21:52:52.267Z,56.62
2022-11-18T21:57:57.664Z,56.79
2022-11-18T22:03:04.386Z,57.31
2022-11-18T22:08:10.928Z,57.47
2022-11-18T22:13:13.906Z,57.68
2022-11-18T22:18:16.911Z,57.88
2022-11-18T22:23:21.699Z,58.17
2022-11-18T22:28:25.278Z,58.52
2022-11-18T22:33:28.260Z,58.53
2022-11-18T22:38:31.937Z,58.32
2022-11-18T22:43:35.855Z,58.19
2022-11-18T22:48:38.802Z,58.57
2022-11-18T22:53:41.752Z,58.91
2022-11-18T22:58:44.956Z,58.55
2022-11-18T23:03:48.517Z,58.38
2022-11-18T23:08:51.502Z,58.41
2022-11-18T23:14:03.894Z,58.70
2022-11-18T23:19:09.409Z,58.63
2022-11-18T23:24:17.421Z,58.97
2022-11-18T23:29:20.677Z,58.89
2022-11-18T23:34:23.866Z,58.25
2022-11-18T23:39:27.729Z,58.52
2022-11-18T23:44:45.797Z,58.69
2022-11-18T23:49:48.722Z,58.86
2022-11-18T23:54:53.157Z,58.65
2022-11-18T23:59:56.089Z,58.35
